Time;durP1;ratioP1;P1;durP2;ratioP2;P2;SDS_P1;SDS_P2;PMS_P1;PMS_P2;Temp;Humidity;BMP_temperature;BMP_pressure;BME280_temperature;BME280_humidity;BME280_pressure;Samples;Min_cycle;Max_cycle;Signal;HPM_P1;HPM_P2
2022/05/25 00:00:18;;;;;;;;;;;14.30;99.90;;;;;;5054462;28;20068;-71
2022/05/25 00:02:49;;;;;;;1.63;0.50;;;14.30;99.90;;;;;;5054359;28;20351;-72
2022/05/25 00:05:17;;;;;;;0.47;0.40;;;14.20;99.90;;;;;;5053154;28;20127;-71
2022/05/25 00:07:47;;;;;;;2.35;0.40;;;14.30;99.90;;;;;;5053819;28;20142;-71
2022/05/25 00:10:14;;;;;;;2.17;0.70;;;14.10;99.90;;;;;;5085855;28;20036;-72
2022/05/25 00:12:43;;;;;;;2.45;0.55;;;14.20;99.90;;;;;;5052519;28;20048;-72
2022/05/25 00:31:59;;;;;;;3.25;0.52;;;14.20;99.90;;;;;;5072504;28;20073;-71
2022/05/25 00:34:25;;;;;;;3.28;0.50;;;14.10;99.90;;;;;;5076761;28;20052;-71
2022/05/25 00:36:51;;;;;;;2.08;0.77;;;14.20;99.90;;;;;;5114034;27;20040;-76
2022/05/25 00:39:18;;;;;;;1.38;0.45;;;14.10;99.90;;;;;;5093815;28;20102;-71
2022/05/25 00:41:43;;;;;;;4.00;0.95;;;14.20;99.90;;;;;;5093806;28;20051;-74
2022/05/25 00:44:09;;;;;;;3.03;0.70;;;14.20;99.90;;;;;;5093730;28;20036;-71
2022/05/25 00:46:38;;;;;;;0.50;0.30;;;14.20;99.90;;;;;;5093882;28;20072;-71
2022/05/25 00:49:10;;;;;;;4.00;0.70;;;14.00;99.90;;;;;;5092485;28;20484;-76
2022/05/25 00:51:42;;;;;;;2.95;0.50;;;14.00;99.90;;;;;;5093621;28;20085;-71
2022/05/25 00:54:13;;;;;;;2.60;0.50;;;13.90;99.90;;;;;;5093735;28;20039;-71
2022/05/25 00:56:45;;;;;;;3.83;0.70;;;13.90;99.90;;;;;;5093520;28;20479;-71
2022/05/25 01:39:56;;;;;;;2.63;0.70;;;13.40;99.90;;;;;;5076717;28;20031;-71
2022/05/25 01:42:33;;;;;;;3.97;0.98;;;13.30;99.90;;;;;;5076933;28;20053;-71
2022/05/25 01:45:05;;;;;;;4.20;0.60;;;13.20;99.90;;;;;;5076612;28;20036;-71
2022/05/25 01:47:33;;;;;;;2.13;0.50;;;13.10;99.90;;;;;;5079530;28;20032;-70
2022/05/25 01:50:10;;;;;;;3.33;0.63;;;13.10;99.90;;;;;;5091489;28;20043;-71
2022/05/25 01:52:45;;;;;;;1.13;0.57;;;13.00;99.90;;;;;;5081206;28;20399;-71
2022/05/25 01:55:26;;;;;;;3.08;0.60;;;13.00;99.90;;;;;;5096904;28;20051;-71
2022/05/25 01:58:00;;;;;;;3.77;0.47;;;12.90;99.90;;;;;;5096749;28;20036;-74
2022/05/25 02:00:39;;;;;;;1.60;0.50;;;12.90;99.90;;;;;;5096579;28;20286;-71
2022/05/25 02:06:14;;;;;;;1.80;0.57;;;12.90;99.90;;;;;;5096421;28;20054;-71
2022/05/25 02:09:01;;;;;;;1.02;0.40;;;12.90;99.90;;;;;;5096306;28;20067;-71
2022/05/25 02:11:38;;;;;;;0.68;0.47;;;12.70;99.90;;;;;;5096320;28;20507;-72
2022/05/25 02:14:10;;;;;;;5.25;0.85;;;12.70;99.90;;;;;;5096294;28;20036;-71
2022/05/25 02:17:07;;;;;;;1.65;0.52;;;12.70;99.90;;;;;;5096250;28;20044;-71
2022/05/25 02:20:00;;;;;;;3.50;0.30;;;12.70;99.90;;;;;;5096251;28;20119;-70
2022/05/25 02:22:43;;;;;;;8.32;0.82;;;12.60;99.90;;;;;;5096338;28;20074;-71
2022/05/25 02:25:34;;;;;;;2.50;0.57;;;12.60;99.90;;;;;;5096133;28;20043;-71
2022/05/25 02:28:27;;;;;;;4.15;0.50;;;12.50;99.90;;;;;;5096148;28;20044;-71
2022/05/25 02:30:57;;;;;;;0.85;0.50;;;12.50;99.90;;;;;;5096291;28;20036;-71
2022/05/25 02:33:37;;;;;;;2.42;0.47;;;12.50;99.90;;;;;;5096234;28;20043;-76
2022/05/25 02:36:05;;;;;;;1.90;0.70;;;12.50;99.90;;;;;;5096109;28;20078;-71
2022/05/25 02:38:31;;;;;;;3.40;0.82;;;12.40;99.90;;;;;;5096009;28;20072;-71
2022/05/25 02:41:24;;;;;;;2.60;0.50;;;12.40;99.90;;;;;;5095923;28;20197;-71
2022/05/25 02:43:50;;;;;;;3.10;0.57;;;12.40;99.90;;;;;;5095874;28;20031;-71
2022/05/25 02:46:16;;;;;;;3.88;0.52;;;12.40;99.90;;;;;;5095947;28;20101;-73
2022/05/25 02:48:42;;;;;;;2.15;0.80;;;12.30;99.90;;;;;;5095849;28;20031;-74
2022/05/25 02:51:08;;;;;;;1.98;0.60;;;12.30;99.90;;;;;;5095649;28;20044;-71
2022/05/25 02:53:34;;;;;;;2.63;0.70;;;12.20;99.90;;;;;;5095549;28;20055;-70
2022/05/25 02:56:02;;;;;;;1.23;0.63;;;12.20;99.90;;;;;;5093924;28;20054;-71
2022/05/25 02:58:28;;;;;;;2.92;0.65;;;12.10;99.90;;;;;;5095262;28;20043;-71
2022/05/25 03:00:55;;;;;;;2.30;0.70;;;12.10;99.90;;;;;;5095241;28;20044;-71
2022/05/25 03:03:21;;;;;;;1.10;0.60;;;12.10;99.90;;;;;;5080158;28;20563;-70
2022/05/25 03:05:47;;;;;;;3.38;0.60;;;12.10;99.90;;;;;;5084327;28;20045;-70
2022/05/25 03:08:13;;;;;;;4.75;0.98;;;11.90;99.90;;;;;;5089783;28;20122;-70
2022/05/25 03:10:40;;;;;;;2.30;0.50;;;12.00;99.90;;;;;;5095219;28;20040;-71
2022/05/25 03:13:07;;;;;;;3.92;0.63;;;12.00;99.90;;;;;;5094307;28;20028;-71
2022/05/25 03:15:33;;;;;;;4.38;0.60;;;12.00;99.90;;;;;;5095238;28;20036;-75
2022/05/25 03:17:59;;;;;;;4.65;0.90;;;11.90;99.90;;;;;;5095237;28;20071;-71
2022/05/25 03:20:25;;;;;;;7.25;0.77;;;11.90;99.90;;;;;;5093618;28;20063;-71
2022/05/25 03:22:51;;;;;;;4.18;0.70;;;11.90;99.90;;;;;;5095063;28;20098;-74
2022/05/25 03:25:17;;;;;;;1.73;0.60;;;11.80;99.90;;;;;;5094347;28;20048;-71
2022/05/25 03:27:44;;;;;;;5.05;0.80;;;11.80;99.90;;;;;;5094666;28;20130;-71
2022/05/25 03:30:11;;;;;;;6.07;0.90;;;11.80;99.90;;;;;;5094618;28;20441;-73
2022/05/25 03:32:37;;;;;;;1.52;0.60;;;11.80;99.90;;;;;;5094723;28;20384;-70
2022/05/25 03:35:04;;;;;;;2.53;0.70;;;11.80;99.90;;;;;;5094862;28;20039;-70
2022/05/25 03:37:30;;;;;;;3.47;0.80;;;11.70;99.90;;;;;;5094942;28;20616;-71
2022/05/25 03:39:55;;;;;;;2.97;0.88;;;11.60;99.90;;;;;;5094665;28;20059;-71
2022/05/25 03:42:22;;;;;;;3.40;0.63;;;11.70;99.90;;;;;;5094588;28;20134;-71
2022/05/25 03:44:48;;;;;;;4.45;0.80;;;11.70;99.90;;;;;;5094585;28;20032;-74
2022/05/25 03:47:15;;;;;;;3.25;0.60;;;11.70;99.90;;;;;;5094670;28;20380;-70
2022/05/25 03:49:41;;;;;;;4.18;0.80;;;11.60;99.90;;;;;;5094876;28;20376;-73
2022/05/25 03:52:07;;;;;;;3.92;0.68;;;11.60;99.90;;;;;;5094417;28;20569;-70
2022/05/25 03:54:36;;;;;;;1.02;0.60;;;11.60;99.90;;;;;;5094457;28;20035;-71
2022/05/25 03:57:05;;;;;;;3.70;0.82;;;11.70;99.90;;;;;;5094379;28;20495;-70
2022/05/25 03:59:31;;;;;;;1.55;0.70;;;11.60;99.90;;;;;;5094499;28;20058;-70
2022/05/25 04:01:57;;;;;;;0.88;0.43;;;11.60;99.90;;;;;;5094372;28;20091;-71
2022/05/25 04:04:23;;;;;;;2.13;0.40;;;11.50;99.90;;;;;;5094333;28;20039;-70
2022/05/25 04:06:49;;;;;;;4.85;0.93;;;11.50;99.90;;;;;;5094189;28;20040;-70
2022/05/25 04:09:15;;;;;;;2.75;1.08;;;11.40;99.90;;;;;;5094198;28;20032;-71
2022/05/25 04:11:42;;;;;;;5.28;0.70;;;11.50;99.90;;;;;;5094198;28;20044;-73
2022/05/25 04:14:09;;;;;;;4.45;0.70;;;11.60;99.90;;;;;;5092927;28;20031;-71
2022/05/25 04:16:35;;;;;;;1.25;0.50;;;11.50;99.90;;;;;;5094403;28;20055;-71
2022/05/25 04:19:01;;;;;;;2.63;0.60;;;11.40;99.90;;;;;;5094083;28;20024;-73
2022/05/25 04:21:27;;;;;;;2.53;0.75;;;11.30;99.90;;;;;;5093938;28;20177;-71
2022/05/25 04:23:53;;;;;;;6.53;1.00;;;11.40;99.90;;;;;;5092709;28;20043;-70
2022/05/25 04:26:19;;;;;;;2.65;0.90;;;11.50;99.90;;;;;;5092698;28;20044;-71
2022/05/25 04:28:45;;;;;;;2.38;0.50;;;11.60;99.90;;;;;;5094089;28;20047;-75
2022/05/25 04:31:11;;;;;;;3.90;0.93;;;11.60;99.90;;;;;;5072270;28;20037;-73
2022/05/25 04:33:39;;;;;;;2.38;0.80;;;11.50;99.90;;;;;;5073536;28;20076;-70
2022/05/25 04:36:05;;;;;;;1.88;0.57;;;11.50;99.90;;;;;;5082089;28;20066;-70
2022/05/25 04:38:30;;;;;;;2.67;0.90;;;11.50;99.90;;;;;;5080965;28;20041;-75
2022/05/25 04:40:56;;;;;;;4.35;0.70;;;11.40;99.90;;;;;;5082231;28;20100;-70
2022/05/25 04:43:23;;;;;;;1.60;0.80;;;11.40;99.90;;;;;;5093754;28;20068;-70
2022/05/25 04:45:51;;;;;;;2.67;0.60;;;11.40;99.90;;;;;;5094017;28;20126;-71
2022/05/25 04:48:23;;;;;;;3.05;0.82;;;11.50;99.90;;;;;;5092955;28;20425;-71
2022/05/25 04:50:50;;;;;;;2.95;1.08;;;11.50;99.90;;;;;;5093487;28;20089;-70
2022/05/25 04:53:18;;;;;;;4.25;1.17;;;11.40;99.90;;;;;;5082419;28;20036;-70
2022/05/25 04:58:35;;;;;;;1.42;0.70;;;11.40;99.90;;;;;;5073302;28;20094;-70
2022/05/25 05:01:02;;;;;;;4.05;0.95;;;11.50;99.90;;;;;;5073198;28;20512;-70
2022/05/25 05:03:30;;;;;;;5.22;0.55;;;11.50;99.90;;;;;;5073321;28;20113;-70
2022/05/25 05:05:56;;;;;;;1.98;0.80;;;11.60;99.90;;;;;;5073352;28;20044;-68
2022/05/25 05:08:22;;;;;;;4.47;1.00;;;11.60;99.90;;;;;;5073568;28;20048;-71
2022/05/25 05:10:49;;;;;;;2.45;0.95;;;11.70;99.90;;;;;;5073464;28;20032;-71
2022/05/25 05:13:15;;;;;;;3.58;0.85;;;11.70;99.90;;;;;;5073316;28;20037;-68
2022/05/25 05:15:45;;;;;;;2.15;0.95;;;11.80;99.90;;;;;;5069742;28;20123;-68
2022/05/25 05:18:11;;;;;;;2.30;0.90;;;12.00;99.90;;;;;;5071175;28;20404;-68
2022/05/25 05:20:40;;;;;;;4.80;1.10;;;12.10;99.90;;;;;;5054604;28;20483;-68
2022/05/25 05:23:06;;;;;;;2.05;0.70;;;12.20;99.90;;;;;;5061437;28;20048;-71
2022/05/25 05:25:33;;;;;;;3.65;0.95;;;12.40;99.90;;;;;;5066096;28;20053;-69
2022/05/25 05:28:08;;;;;;;1.63;0.80;;;12.60;99.90;;;;;;5057836;28;20033;-69
2022/05/25 05:30:38;;;;;;;2.47;0.95;;;12.80;99.90;;;;;;5053070;28;20044;-68
2022/05/25 05:33:04;;;;;;;4.93;1.10;;;13.00;99.90;;;;;;5051912;28;20052;-69
2022/05/25 05:35:30;;;;;;;3.13;0.80;;;13.20;99.90;;;;;;5053046;28;20609;-69
2022/05/25 05:37:57;;;;;;;3.75;1.30;;;13.40;99.90;;;;;;5059766;28;20036;-69
2022/05/25 05:40:24;;;;;;;1.40;0.70;;;;;;;;;;5053179;28;20051;-70
2022/05/25 05:42:52;;;;;;;6.35;0.80;;;13.70;99.90;;;;;;5053270;28;20079;-69
2022/05/25 05:45:23;;;;;;;2.85;0.98;;;13.80;99.90;;;;;;5074942;28;20570;-72
2022/05/25 05:47:56;;;;;;;4.88;1.05;;;13.90;99.90;;;;;;5091858;28;20132;-73
2022/05/25 05:50:23;;;;;;;4.00;0.90;;;14.10;99.90;;;;;;5096290;28;20111;-69
2022/05/25 05:52:50;;;;;;;1.05;0.50;;;14.30;99.90;;;;;;5096816;28;20044;-69
2022/05/25 05:55:18;;;;;;;5.13;0.93;;;14.40;99.90;;;;;;5096932;28;20031;-70
2022/05/25 05:57:44;;;;;;;2.75;0.70;;;14.50;99.90;;;;;;5096861;28;20200;-69
2022/05/25 06:00:11;;;;;;;2.42;1.00;;;14.60;99.90;;;;;;5074946;28;20051;-71
2022/05/25 06:02:37;;;;;;;3.72;0.60;;;14.80;99.90;;;;;;5072585;28;20055;-69
2022/05/25 06:05:03;;;;;;;2.22;0.60;;;14.90;99.90;;;;;;5076322;28;20040;-69
2022/05/25 06:07:29;;;;;;;3.67;0.63;;;15.00;99.90;;;;;;5076462;28;20488;-70
2022/05/25 06:09:56;;;;;;;2.13;0.65;;;15.20;99.90;;;;;;5055330;28;20055;-71
2022/05/25 06:12:23;;;;;;;1.98;0.68;;;15.40;99.90;;;;;;5055791;28;20044;-70
2022/05/25 06:14:51;;;;;;;3.88;1.33;;;15.70;99.90;;;;;;5055792;28;20064;-69
2022/05/25 06:20:01;;;;;;;1.20;0.50;;;15.80;99.90;;;;;;5055992;28;20110;-71
2022/05/25 06:22:27;;;;;;;3.08;0.75;;;15.90;99.90;;;;;;5064438;28;20498;-72
2022/05/25 06:24:56;;;;;;;2.45;0.70;;;16.00;99.90;;;;;;5094921;28;20039;-69
2022/05/25 06:27:23;;;;;;;2.17;0.60;;;16.40;99.90;;;;;;5078859;28;20113;-69
2022/05/25 06:29:49;;;;;;;2.72;1.10;;;16.30;99.90;;;;;;5096174;28;20399;-71
2022/05/25 06:32:20;;;;;;;3.85;0.93;;;16.70;99.90;;;;;;5096266;28;20495;-70
2022/05/25 06:34:50;;;;;;;3.25;0.70;;;17.00;99.90;;;;;;5096116;28;20063;-70
2022/05/25 06:37:24;;;;;;;2.00;0.57;;;16.90;99.90;;;;;;5095943;28;20039;-70
2022/05/25 06:39:50;;;;;;;1.77;0.65;;;17.10;99.90;;;;;;5095748;28;20131;-71
2022/05/25 06:42:16;;;;;;;4.95;1.25;;;17.30;99.90;;;;;;5095842;28;20462;-71
2022/05/25 06:44:44;;;;;;;4.28;1.02;;;17.50;99.90;;;;;;5095762;28;20043;-71
2022/05/25 06:47:17;;;;;;;3.80;0.68;;;17.60;99.90;;;;;;5096039;28;20063;-71
2022/05/25 06:49:43;;;;;;;2.30;0.93;;;17.60;99.90;;;;;;5094467;28;20075;-70
2022/05/25 06:52:10;;;;;;;2.15;0.55;;;17.90;99.90;;;;;;5076646;28;20036;-71
2022/05/25 06:54:36;;;;;;;2.25;0.65;;;18.00;99.90;;;;;;5079059;28;20055;-70
2022/05/25 06:57:02;;;;;;;1.85;0.80;;;17.80;99.90;;;;;;5095519;28;20122;-70
2022/05/25 06:59:28;;;;;;;1.85;0.60;;;17.70;99.90;;;;;;5080285;28;20032;-71
2022/05/25 07:01:54;;;;;;;4.40;0.70;;;17.90;99.90;;;;;;5074194;28;20371;-72
2022/05/25 07:04:20;;;;;;;8.52;1.15;;;18.10;99.90;;;;;;5076475;28;20055;-72
2022/05/25 07:06:46;;;;;;;4.32;0.80;;;18.40;99.90;;;;;;5086299;28;20478;-71
2022/05/25 07:09:12;;;;;;;2.75;0.60;;;18.20;99.90;;;;;;5095431;28;20128;-71
2022/05/25 07:11:42;;;;;;;3.28;0.45;;;17.60;99.90;;;;;;5095187;28;20047;-71
2022/05/25 07:14:09;;;;;;;4.22;0.90;;;18.30;99.90;;;;;;5095055;28;20079;-71
2022/05/25 07:16:36;;;;;;;5.72;0.75;;;18.40;99.90;;;;;;5088188;28;20056;-72
2022/05/25 07:19:04;;;;;;;1.73;0.60;;;18.50;99.90;;;;;;5054815;28;20084;-72
2022/05/25 07:21:33;;;;;;;2.75;0.57;;;18.40;99.90;;;;;;5081748;28;20186;-72
2022/05/25 07:24:00;;;;;;;4.40;1.10;;;18.30;99.90;;;;;;5086507;28;20083;-71
2022/05/25 07:26:28;;;;;;;4.00;0.75;;;18.00;99.90;;;;;;5078010;28;20040;-72
2022/05/25 07:28:54;;;;;;;3.20;0.70;;;18.50;99.90;;;;;;5065874;28;20045;-71
2022/05/25 07:31:23;;;;;;;2.17;0.55;;;18.40;99.90;;;;;;5069014;28;20048;-71
2022/05/25 07:34:04;;;;;;;1.05;0.40;;;18.70;99.90;;;;;;5092274;28;20130;-71
2022/05/25 07:36:31;;;;;;;2.85;0.52;;;19.30;99.90;;;;;;5084147;28;20036;-70
2022/05/25 07:39:01;;;;;;;5.78;0.60;;;19.20;99.20;;;;;;5071809;28;20572;-71
2022/05/25 07:41:28;;;;;;;3.33;0.73;;;19.20;98.90;;;;;;5075087;28;20047;-71
2022/05/25 07:43:57;;;;;;;1.50;0.60;;;19.00;99.90;;;;;;5081184;28;20413;-71
2022/05/25 07:46:29;;;;;;;6.63;1.05;;;18.90;99.90;;;;;;5077619;28;20040;-71
2022/05/25 07:48:56;;;;;;;1.88;0.80;;;18.40;99.00;;;;;;5051704;28;20080;-71
2022/05/25 07:51:22;;;;;;;3.95;1.13;;;;;;;;;;5050321;28;20037;-73
2022/05/25 07:53:57;;;;;;;3.83;0.77;;;20.10;99.80;;;;;;5051111;28;20048;-71
2022/05/25 07:56:26;;;;;;;2.40;0.80;;;20.10;98.40;;;;;;5053563;28;20407;-72
2022/05/25 07:58:54;;;;;;;3.03;0.80;;;20.10;99.00;;;;;;5068112;28;20439;-71
2022/05/25 08:05:43;;;;;;;2.83;0.63;;;20.40;97.80;;;;;;5086110;28;20106;-72
2022/05/25 08:06:54;;;;;;;1.95;0.60;;;20.50;98.40;;;;;;5091512;28;20035;-72
2022/05/25 08:09:20;;;;;;;3.40;0.73;;;20.10;96.00;;;;;;5091918;28;20040;-71
2022/05/25 08:11:46;;;;;;;3.55;0.60;;;20.50;98.80;;;;;;5091671;28;20036;-73
2022/05/25 08:14:12;;;;;;;1.92;0.60;;;21.00;98.40;;;;;;5062866;28;20036;-70
2022/05/25 08:16:38;;;;;;;2.90;0.73;;;21.30;97.30;;;;;;5061391;28;20079;-71
2022/05/25 08:19:04;;;;;;;0.98;0.43;;;21.70;96.30;;;;;;5063306;28;20039;-74
2022/05/25 08:21:30;;;;;;;1.48;0.60;;;21.60;96.20;;;;;;5064573;28;20040;-72
2022/05/25 08:23:56;;;;;;;1.92;0.70;;;20.90;96.30;;;;;;5059609;28;20051;-71
2022/05/25 08:26:22;;;;;;;2.03;0.85;;;20.70;96.60;;;;;;5061411;28;20040;-69
2022/05/25 08:28:48;;;;;;;1.30;0.60;;;20.20;97.00;;;;;;5069504;28;20151;-70
2022/05/25 08:31:14;;;;;;;1.20;0.55;;;20.30;96.70;;;;;;5075452;28;20036;-71
2022/05/25 08:33:43;;;;;;;1.45;0.63;;;19.60;95.00;;;;;;5061254;28;20451;-69
2022/05/25 08:36:09;;;;;;;2.90;0.90;;;18.90;96.70;;;;;;5061080;28;20044;-71
2022/05/25 08:38:35;;;;;;;2.92;0.80;;;19.60;96.80;;;;;;5062073;28;20048;-71
2022/05/25 08:41:01;;;;;;;1.95;0.50;;;19.00;96.50;;;;;;5056220;28;20052;-71
2022/05/25 08:43:34;;;;;;;1.05;0.60;;;19.60;98.60;;;;;;5050148;28;20049;-71
2022/05/25 08:46:04;;;;;;;1.65;0.60;;;20.60;96.60;;;;;;5060740;28;20064;-71
2022/05/25 08:48:32;;;;;;;1.52;0.60;;;20.70;95.70;;;;;;5059053;28;20535;-71
2022/05/25 08:51:03;;;;;;;2.60;0.70;;;20.40;95.20;;;;;;5060234;28;20048;-70
2022/05/25 08:53:29;;;;;;;1.73;0.50;;;19.60;96.60;;;;;;5058947;28;20048;-71
2022/05/25 08:56:13;;;;;;;1.42;0.50;;;19.20;96.00;;;;;;5060085;28;20033;-71
2022/05/25 08:58:58;;;;;;;1.63;0.60;;;18.70;96.60;;;;;;5062417;28;20045;-71
2022/05/25 09:01:34;;;;;;;3.75;0.73;;;18.70;97.50;;;;;;5069444;28;20060;-70
2022/05/25 09:04:29;;;;;;;2.47;0.55;;;19.80;95.80;;;;;;5069938;28;20885;-71
2022/05/25 09:07:01;;;;;;;1.00;0.50;;;20.00;95.70;;;;;;5061078;28;20044;-73
2022/05/25 09:09:39;;;;;;;6.45;0.70;;;19.80;96.00;;;;;;5069893;28;20073;-71
2022/05/25 09:12:14;;;;;;;1.67;0.70;;;19.60;96.70;;;;;;5070054;28;20086;-71
2022/05/25 09:14:56;;;;;;;1.30;0.50;;;18.90;95.90;;;;;;5071656;28;20048;-70
2022/05/25 09:17:34;;;;;;;2.03;0.50;;;18.50;96.30;;;;;;5069571;28;20071;-70
2022/05/25 09:20:04;;;;;;;5.90;0.80;;;18.80;96.80;;;;;;5069415;28;20055;-70
2022/05/25 09:22:32;;;;;;;3.47;0.65;;;18.40;96.90;;;;;;5070993;28;20040;-70
2022/05/25 09:25:03;;;;;;;4.00;0.60;;;18.60;96.70;;;;;;5072124;28;20048;-70
2022/05/25 09:28:00;;;;;;;3.95;0.60;;;18.60;96.00;;;;;;5074581;28;20423;-70
2022/05/25 09:30:30;;;;;;;4.32;1.58;;;18.50;96.20;;;;;;5069833;28;20511;-70
2022/05/25 09:33:12;;;;;;;2.00;0.80;;;18.90;96.30;;;;;;5075015;28;20113;-71
2022/05/25 09:35:45;;;;;;;2.50;0.70;;;19.50;96.20;;;;;;5076004;28;20041;-70
2022/05/25 09:38:17;;;;;;;1.80;0.50;;;18.90;96.30;;;;;;5074983;28;20089;-70
2022/05/25 09:40:53;;;;;;;2.58;0.50;;;18.70;95.80;;;;;;5072684;28;20051;-70
2022/05/25 09:43:25;;;;;;;3.30;0.60;;;18.00;95.60;;;;;;5074623;28;20047;-69
2022/05/25 09:46:08;;;;;;;0.63;0.50;;;18.50;96.50;;;;;;5067565;28;20036;-70
2022/05/25 09:48:58;;;;;;;2.85;0.50;;;19.70;96.90;;;;;;5055092;28;20546;-70
2022/05/25 09:51:38;;;;;;;3.67;0.70;;;19.20;94.60;;;;;;5054498;28;20040;-70
2022/05/25 09:54:20;;;;;;;1.80;0.73;;;18.10;95.50;;;;;;5054808;28;20481;-70
2022/05/25 09:56:58;;;;;;;3.40;0.50;;;17.90;96.90;;;;;;5073666;28;20043;-70
2022/05/25 09:59:48;;;;;;;1.33;0.77;;;18.20;96.20;;;;;;5075054;28;20123;-70
2022/05/25 10:02:48;;;;;;;6.00;0.88;;;18.30;96.20;;;;;;5074858;28;20053;-69
2022/05/25 10:05:23;;;;;;;5.40;0.70;;;18.80;95.90;;;;;;5066273;28;20033;-70
2022/05/25 10:08:03;;;;;;;2.92;1.23;;;18.30;95.70;;;;;;5053002;28;20041;-69
2022/05/25 10:10:35;;;;;;;3.23;0.80;;;18.10;95.80;;;;;;5056476;28;20049;-70
2022/05/25 10:13:25;;;;;;;7.70;1.40;;;18.10;96.00;;;;;;5065178;28;20812;-70
2022/05/25 10:15:53;;;;;;;3.47;0.93;;;18.30;96.80;;;;;;5074893;28;20036;-69
2022/05/25 10:18:43;;;;;;;32.70;2.13;;;18.10;95.80;;;;;;5063764;28;20047;-69
2022/05/25 10:21:28;;;;;;;1.27;0.63;;;19.00;96.00;;;;;;5063148;28;20118;-70
2022/05/25 10:23:57;;;;;;;4.10;1.20;;;19.60;96.30;;;;;;5090529;28;20115;-72
2022/05/25 10:26:44;;;;;;;6.85;0.88;;;19.10;94.70;;;;;;5079788;28;20063;-71
2022/05/25 10:38:29;;;;;;;0.77;0.40;;;17.90;95.10;;;;;;5087075;28;20109;-71
2022/05/25 10:40:58;;;;;;;5.05;0.80;;;18.50;94.80;;;;;;5080149;28;20058;-73
2022/05/25 10:43:29;;;;;;;2.65;0.50;;;18.70;95.10;;;;;;5090326;28;20579;-72
2022/05/25 10:46:00;;;;;;;2.75;0.77;;;18.80;94.90;;;;;;5071272;28;20040;-71
2022/05/25 10:48:51;;;;;;;2.10;0.75;;;19.40;94.40;;;;;;5089531;28;20028;-71
2022/05/25 10:51:39;;;;;;;1.95;0.70;;;18.90;95.00;;;;;;5083966;28;20472;-71
2022/05/25 10:54:46;;;;;;;6.75;0.75;;;18.80;94.10;;;;;;5085597;28;20048;-70
2022/05/25 10:57:47;;;;;;;1.55;0.55;;;18.70;93.20;;;;;;5083817;28;20037;-71
2022/05/25 11:00:22;;;;;;;2.03;0.50;;;18.40;93.30;;;;;;5052178;28;20065;-70
2022/05/25 11:03:43;;;;;;;3.10;0.55;;;18.10;94.30;;;;;;5069950;28;20067;-70
2022/05/25 11:06:29;;;;;;;3.58;0.93;;;18.20;94.40;;;;;;5008679;28;20593;-70
2022/05/25 11:09:08;;;;;;;1.70;0.60;;;17.70;94.50;;;;;;5068380;28;20040;-71
2022/05/25 11:11:50;;;;;;;2.58;0.65;;;17.90;94.50;;;;;;5081902;28;20036;-70
2022/05/25 11:14:49;;;;;;;0.98;0.38;;;18.00;94.20;;;;;;5071037;28;20033;-71
2022/05/25 11:17:50;;;;;;;2.47;0.75;;;18.50;94.10;;;;;;5070944;28;20090;-72
2022/05/25 11:20:45;;;;;;;0.82;0.40;;;18.70;95.50;;;;;;5067546;28;20048;-72
2022/05/25 11:23:37;;;;;;;2.10;0.52;;;19.30;93.50;;;;;;5072221;28;20523;-72
2022/05/25 11:26:13;;;;;;;1.02;0.52;;;19.00;93.40;;;;;;5071593;28;20040;-76
2022/05/25 11:28:50;;;;;;;3.20;0.52;;;18.40;94.00;;;;;;5069170;28;20040;-71
2022/05/25 11:31:35;;;;;;;2.90;0.80;;;18.30;94.80;;;;;;5071599;28;20048;-80
2022/05/25 11:34:38;;;;;;;2.85;0.85;;;18.50;93.90;;;;;;5071828;28;20044;-72
2022/05/25 11:37:28;;;;;;;2.60;1.67;;;18.20;94.10;;;;;;5069243;28;20041;-73
2022/05/25 11:39:54;;;;;;;;;;;18.80;95.90;;;;;;5073787;28;20408;-73
2022/05/25 11:42:36;;;;;;;3.63;0.40;;;19.80;96.20;;;;;;5073828;28;19917;-73
2022/05/25 11:45:21;;;;;;;1.85;0.57;;;19.80;93.60;;;;;;5073946;28;20040;-73
2022/05/25 11:48:08;;;;;;;0.93;0.40;;;;;;;;;;5078658;28;20060;-72
2022/05/25 11:50:46;;;;;;;3.03;0.70;;;20.90;99.90;;;;;;5070376;28;20032;-73
2022/05/25 11:53:28;;;;;;;3.17;0.60;;;20.00;99.90;;;;;;5070289;28;20122;-73
2022/05/25 11:56:23;;;;;;;0.40;0.40;;;20.80;99.90;;;;;;5071825;28;20071;-73
2022/05/25 11:59:06;;;;;;;2.45;0.43;;;20.50;99.90;;;;;;5071625;28;20048;-71
2022/05/25 12:01:38;;;;;;;1.95;0.50;;;;;;;;;;5070082;28;20061;-71
2022/05/25 12:04:13;;;;;;;1.40;0.60;;;19.60;95.90;;;;;;5069256;28;20044;-78
2022/05/25 12:06:53;;;;;;;1.88;0.40;;;19.70;91.50;;;;;;5072404;28;20134;-78
2022/05/25 12:09:40;;;;;;;1.50;0.80;;;20.00;91.90;;;;;;5072083;28;20040;-72
2022/05/25 12:12:18;;;;;;;10.00;0.60;;;19.60;92.00;;;;;;5073611;28;20120;-72
2022/05/25 12:15:19;;;;;;;1.67;0.50;;;19.30;91.60;;;;;;5082739;28;20032;-71
2022/05/25 12:18:02;;;;;;;3.50;0.70;;;19.10;92.20;;;;;;5087375;28;20044;-71
2022/05/25 12:20:59;;;;;;;1.92;0.57;;;19.40;92.50;;;;;;5081807;28;20048;-70
2022/05/25 12:23:39;;;;;;;1.33;0.60;;;19.20;93.60;;;;;;5051559;28;20068;-74
2022/05/25 12:26:26;;;;;;;2.00;0.50;;;19.40;91.90;;;;;;5050711;28;20033;-71
2022/05/25 12:28:58;;;;;;;2.80;0.60;;;19.70;91.30;;;;;;5050900;28;20045;-78
2022/05/25 12:31:30;;;;;;;1.27;0.47;;;19.80;90.30;;;;;;5051092;28;20515;-71
2022/05/25 12:33:56;;;;;;;3.30;0.52;;;19.50;90.90;;;;;;5050842;28;20127;-72
2022/05/25 12:36:23;;;;;;;0.95;0.50;;;19.10;91.70;;;;;;5065742;28;20128;-70
2022/05/25 12:38:51;;;;;;;3.03;0.57;;;19.40;92.30;;;;;;5072924;28;20040;-73
2022/05/25 12:41:39;;;;;;;2.22;0.60;;;19.50;91.20;;;;;;5071533;28;20052;-73
2022/05/25 12:50:43;;;;;;;2.50;0.52;;;19.20;91.70;;;;;;5068849;28;20040;-73
2022/05/25 12:53:30;;;;;;;2.10;0.47;;;19.30;91.10;;;;;;5091447;28;20043;-73
2022/05/25 12:56:15;;;;;;;4.50;0.60;;;19.30;90.70;;;;;;5090413;28;20089;-72
2022/05/25 12:58:50;;;;;;;1.85;0.50;;;19.30;91.00;;;;;;5084740;28;20071;-73
2022/05/25 13:01:22;;;;;;;1.45;0.50;;;19.20;90.90;;;;;;5073586;28;20539;-73
2022/05/25 13:03:48;;;;;;;1.40;0.68;;;19.50;91.30;;;;;;5065133;28;20044;-73
2022/05/25 13:06:47;;;;;;;1.02;0.40;;;19.60;91.10;;;;;;5074643;28;20418;-73
2022/05/25 13:09:43;;;;;;;2.08;0.95;;;19.40;91.10;;;;;;5073380;28;20479;-73
2022/05/25 13:12:37;;;;;;;2.10;0.50;;;19.50;92.30;;;;;;5076228;28;20036;-72
2022/05/25 13:15:24;;;;;;;0.82;0.45;;;19.20;91.70;;;;;;5077457;28;20036;-73
2022/05/25 13:18:00;;;;;;;3.65;0.77;;;19.20;92.60;;;;;;5076516;28;20439;-73
2022/05/25 13:20:46;;;;;;;2.50;1.02;;;19.80;92.60;;;;;;5076378;28;20581;-72
2022/05/25 13:23:51;;;;;;;1.77;0.63;;;19.40;92.20;;;;;;5075379;28;20074;-72
2022/05/25 13:26:24;;;;;;;2.05;0.52;;;19.30;91.40;;;;;;5074875;28;20036;-72
2022/05/25 13:29:08;;;;;;;5.43;0.90;;;19.50;92.10;;;;;;5076110;28;20044;-74
2022/05/25 13:31:55;;;;;;;1.30;0.50;;;19.40;91.60;;;;;;5088361;28;20546;-73
2022/05/25 13:34:21;;;;;;;2.70;0.70;;;19.70;92.20;;;;;;5096751;28;20036;-72
2022/05/25 13:37:00;;;;;;;1.08;0.50;;;19.80;91.30;;;;;;5095596;28;20036;-72
2022/05/25 13:39:28;;;;;;;3.88;0.60;;;19.50;90.80;;;;;;5095543;28;20043;-73
2022/05/25 13:42:10;;;;;;;4.47;0.57;;;19.70;91.10;;;;;;5095034;28;20131;-74
2022/05/25 13:44:53;;;;;;;2.70;0.80;;;19.80;91.40;;;;;;5095454;28;20126;-72
2022/05/25 13:47:25;;;;;;;3.53;0.70;;;19.80;91.40;;;;;;5096365;28;20071;-72
2022/05/25 13:49:55;;;;;;;4.85;1.05;;;19.80;90.80;;;;;;5094808;28;20044;-72
2022/05/25 13:52:24;;;;;;;3.08;0.63;;;19.40;90.70;;;;;;5094222;28;20044;-72
2022/05/25 13:54:59;;;;;;;3.35;0.63;;;19.00;91.70;;;;;;5093674;28;20051;-71
2022/05/25 13:57:47;;;;;;;1.65;0.60;;;18.80;92.20;;;;;;5095698;28;20028;-73
2022/05/25 14:00:16;;;;;;;2.85;0.45;;;18.70;92.50;;;;;;5084409;28;20127;-72
2022/05/25 14:02:50;;;;;;;3.47;0.98;;;18.80;92.60;;;;;;5091167;28;20069;-73
2022/05/25 14:05:24;;;;;;;2.17;0.52;;;18.60;93.00;;;;;;5093699;28;20391;-72
2022/05/25 14:07:51;;;;;;;5.80;0.60;;;18.60;93.00;;;;;;5095151;28;20531;-72
2022/05/25 14:13:11;;;;;;;1.00;0.40;;;18.80;92.30;;;;;;5094547;28;20039;-72
2022/05/25 14:15:38;;;;;;;1.27;0.40;;;18.60;91.90;;;;;;5095300;28;20032;-71
2022/05/25 14:18:04;;;;;;;1.60;0.47;;;18.50;91.80;;;;;;5095250;28;20130;-73
2022/05/25 14:20:30;;;;;;;2.20;0.68;;;18.50;91.80;;;;;;5091407;28;20119;-73
2022/05/25 14:22:56;;;;;;;4.40;0.60;;;18.80;92.30;;;;;;5074262;28;20064;-72
2022/05/25 14:25:26;;;;;;;1.58;0.60;;;18.70;91.70;;;;;;5071515;28;20094;-72
2022/05/25 14:27:52;;;;;;;3.60;0.75;;;18.50;91.20;;;;;;5071552;28;20052;-77
2022/05/25 14:30:33;;;;;;;2.40;0.45;;;18.50;91.10;;;;;;5077893;28;20043;-74
2022/05/25 14:33:02;;;;;;;;;;;18.70;91.10;;;;;;5088841;28;20507;-72
2022/05/25 14:35:30;;;;;;;1.80;0.63;;;18.60;91.50;;;;;;5075711;28;19908;-72
2022/05/25 14:37:57;;;;;;;2.20;0.50;;;18.70;92.70;;;;;;5072803;28;20435;-74
2022/05/25 14:40:29;;;;;;;5.00;0.65;;;18.80;91.50;;;;;;5072333;28;20032;-73
2022/05/25 14:43:01;;;;;;;4.22;0.80;;;18.90;91.90;;;;;;5072229;28;20053;-73
2022/05/25 14:45:29;;;;;;;1.77;0.50;;;18.90;91.90;;;;;;5072763;28;20031;-76